Archival Weather

Alykel

Alykel, Russia (UOOO)

Report from: Tuesday, November 21, 2023 3:00 PM UTC
Current time: Friday, July 19, 2024 2:23 AM UTC

Current weather – Weather history – Daily summaries
Weather forecast

Present weatherLight snow, drifting snow
Temperature-26.0°C (-14.8°F)
Wind chill-38.5°C (-37.2°F)
Dew point-29.0°C (-20.2°F)
Winds 11.7 kts (6 m/s, 13.4 mph) South (190°)
Visibility5 mi. (8 km)
Clouds Ceiling: Overcast 1,300 ft. (396 m)
Altimeter30.30 in.Hg (1026 mB)
Precip. events QF 2:33 AM
Relative humidity76 %
Density altitude-5,757 ft. (-1,755 m)
Remarks No significant changes expected in the next two hours
Flight conditions Marginal Visual Meteorological Conditions
Raw dataUOOO 211500Z 19006MPS 8000 -SN DRSN OVC013 M26/M29 Q1026 R19/35//60 NOSIG RMK QFE753/1005
An error has occurred. This application may no longer respond until reloaded. Reload 🗙